KAL201 VMMC-RKSI
Flight info
| Callsign | KAL201 |
|---|---|
| Flight time | 3h 12m |
| Altitude | 33000 |
| Route | CONG2P CONGA V3 ENVAR M750 ANLOT B1 APU DRAKE Q11 WP900 L4 LIPLO Y741 ATOTI Y722 OLMEN OLME2E |
| Aircraft | B736/M-SCDFGHIRUWXYZ/L |
Departure
| Time | 2026-04-12 08:11 |
|---|---|
| Airport | Macau International Airport (VMMC) |
Arrival
| Time | 2026-04-12 11:23 |
|---|---|
| Airport | Incheon International Airport (RKSI) |
| Time | Latitude | Longitude | Altitude | Speed | Heading |
|---|---|---|---|---|---|
| 2026-04-12 07:44 | 22.15775 | 113.57765 | 28 ft | 0 kts | 105° |
| 2026-04-12 08:00 | 22.15781 | 113.57742 | 28 ft | 4 kts | 105° |
| 2026-04-12 08:00 | 22.15788 | 113.57715 | 28 ft | 4 kts | 106° |
| 2026-04-12 08:01 | 22.15794 | 113.57688 | 28 ft | 4 kts | 74° |
| 2026-04-12 08:01 | 22.15785 | 113.57678 | 28 ft | 4 kts | 18° |
| 2026-04-12 08:01 | 22.15770 | 113.57673 | 28 ft | 1 kts | 18° |
| 2026-04-12 08:07 | 22.15775 | 113.57675 | 28 ft | 3 kts | 18° |
| 2026-04-12 08:07 | 22.15816 | 113.57688 | 28 ft | 9 kts | 15° |
| 2026-04-12 08:07 | 22.15900 | 113.57711 | 28 ft | 16 kts | 14° |
| 2026-04-12 08:08 | 22.16025 | 113.57746 | 28 ft | 21 kts | 14° |
| 2026-04-12 08:08 | 22.16115 | 113.57853 | 28 ft | 21 kts | 70° |
| 2026-04-12 08:08 | 22.16166 | 113.58010 | 28 ft | 24 kts | 71° |
| 2026-04-12 08:08 | 22.16218 | 113.58172 | 28 ft | 23 kts | 71° |
| 2026-04-12 08:09 | 22.16269 | 113.58329 | 28 ft | 21 kts | 71° |
| 2026-04-12 08:09 | 22.16312 | 113.58468 | 28 ft | 14 kts | 71° |
| 2026-04-12 08:09 | 22.16323 | 113.58502 | 28 ft | 3 kts | 71° |
| 2026-04-12 08:09 | 22.16332 | 113.58530 | 28 ft | 6 kts | 71° |
| 2026-04-12 08:10 | 22.16349 | 113.58619 | 28 ft | 14 kts | 108° |
| 2026-04-12 08:10 | 22.16207 | 113.58679 | 28 ft | 52 kts | 161° |
| 2026-04-12 08:10 | 22.15611 | 113.58898 | 29 ft | 127 kts | 161° |
| 2026-04-12 08:10 | 22.14629 | 113.59250 | 367 ft | 157 kts | 161° |
| 2026-04-12 08:11 | 22.13663 | 113.59608 | 1475 ft | 136 kts | 165° |
| 2026-04-12 08:11 | 22.12758 | 113.59951 | 2278 ft | 137 kts | 165° |
| 2026-04-12 08:11 | 22.11759 | 113.60325 | 2633 ft | 168 kts | 164° |
| 2026-04-12 08:11 | 22.10547 | 113.60779 | 2922 ft | 199 kts | 164° |
| 2026-04-12 08:12 | 22.09152 | 113.61304 | 3221 ft | 222 kts | 163° |
| 2026-04-12 08:12 | 22.07662 | 113.61868 | 3761 ft | 229 kts | 164° |
| 2026-04-12 08:12 | 22.06095 | 113.62460 | 3980 ft | 251 kts | 163° |
| 2026-04-12 08:12 | 22.04400 | 113.63101 | 4341 ft | 263 kts | 164° |
| 2026-04-12 08:13 | 22.02668 | 113.63756 | 5317 ft | 265 kts | 164° |
| 2026-04-12 08:13 | 22.00935 | 113.64409 | 6221 ft | 270 kts | 164° |
| 2026-04-12 08:13 | 21.99141 | 113.65084 | 7036 ft | 275 kts | 164° |
| 2026-04-12 08:13 | 21.97311 | 113.65770 | 7863 ft | 280 kts | 164° |
| 2026-04-12 08:14 | 21.95448 | 113.66448 | 8709 ft | 285 kts | 165° |
| 2026-04-12 08:14 | 21.93550 | 113.67130 | 9564 ft | 290 kts | 165° |
| 2026-04-12 08:14 | 21.91613 | 113.67825 | 10293 ft | 298 kts | 165° |
| 2026-04-12 08:14 | 21.89617 | 113.68541 | 10988 ft | 305 kts | 165° |
| 2026-04-12 08:15 | 21.88282 | 113.69021 | 11387 ft | 306 kts | 166° |
| 2026-04-12 08:15 | 21.85561 | 113.70000 | 11850 ft | 311 kts | 166° |
| 2026-04-12 08:15 | 21.84194 | 113.70491 | 12269 ft | 314 kts | 166° |
| 2026-04-12 08:15 | 21.82129 | 113.71236 | 13194 ft | 312 kts | 167° |
| 2026-04-12 08:16 | 21.80067 | 113.71980 | 13992 ft | 314 kts | 167° |
| 2026-04-12 08:16 | 21.77977 | 113.72731 | 14596 ft | 320 kts | 167° |
| 2026-04-12 08:16 | 21.75139 | 113.73749 | 15383 ft | 328 kts | 167° |
| 2026-04-12 08:16 | 21.73670 | 113.74278 | 15804 ft | 331 kts | 167° |
| 2026-04-12 08:17 | 21.71475 | 113.75068 | 16450 ft | 335 kts | 167° |
| 2026-04-12 08:17 | 21.69252 | 113.75868 | 17084 ft | 339 kts | 167° |
| 2026-04-12 08:17 | 21.66994 | 113.76680 | 17686 ft | 345 kts | 167° |
| 2026-04-12 08:17 | 21.64702 | 113.77503 | 18284 ft | 349 kts | 167° |
| 2026-04-12 08:18 | 21.62387 | 113.78345 | 18849 ft | 354 kts | 164° |
| 2026-04-12 08:18 | 21.60251 | 113.79748 | 19382 ft | 370 kts | 141° |
| 2026-04-12 08:18 | 21.58715 | 113.82005 | 19966 ft | 383 kts | 117° |
| 2026-04-12 08:18 | 21.58083 | 113.84767 | 20548 ft | 391 kts | 96° |
| 2026-04-12 08:19 | 21.57932 | 113.87694 | 21153 ft | 394 kts | 94° |
| 2026-04-12 08:19 | 21.57854 | 113.90660 | 21610 ft | 402 kts | 93° |
| 2026-04-12 08:19 | 21.57793 | 113.93705 | 22014 ft | 410 kts | 93° |
| 2026-04-12 08:19 | 21.57726 | 113.96791 | 22449 ft | 416 kts | 93° |
| 2026-04-12 08:20 | 21.57646 | 113.99903 | 23055 ft | 417 kts | 93° |
| 2026-04-12 08:20 | 21.57553 | 114.03013 | 23655 ft | 417 kts | 94° |
| 2026-04-12 08:20 | 21.57451 | 114.06129 | 24151 ft | 418 kts | 94° |
| 2026-04-12 08:20 | 21.57342 | 114.09260 | 24598 ft | 421 kts | 94° |
| 2026-04-12 08:21 | 21.57228 | 114.12416 | 25036 ft | 425 kts | 94° |
| 2026-04-12 08:21 | 21.57111 | 114.15603 | 25490 ft | 427 kts | 94° |
| 2026-04-12 08:21 | 21.56993 | 114.18810 | 25946 ft | 430 kts | 94° |
| 2026-04-12 08:21 | 21.56873 | 114.22032 | 26404 ft | 433 kts | 94° |
| 2026-04-12 08:22 | 21.56753 | 114.25236 | 26860 ft | 435 kts | 94° |
| 2026-04-12 08:22 | 21.56632 | 114.28495 | 27303 ft | 438 kts | 93° |
| 2026-04-12 08:22 | 21.56508 | 114.31781 | 27725 ft | 442 kts | 93° |
| 2026-04-12 08:22 | 21.56383 | 114.35097 | 28148 ft | 445 kts | 93° |
| 2026-04-12 08:23 | 21.56257 | 114.38425 | 28590 ft | 447 kts | 93° |
| 2026-04-12 08:23 | 21.56129 | 114.41771 | 29029 ft | 450 kts | 93° |
| 2026-04-12 08:23 | 21.56000 | 114.45137 | 29435 ft | 453 kts | 93° |
| 2026-04-12 08:23 | 21.55870 | 114.48525 | 29839 ft | 456 kts | 93° |
| 2026-04-12 08:24 | 21.55738 | 114.51938 | 30198 ft | 458 kts | 93° |
| 2026-04-12 08:24 | 21.55604 | 114.55371 | 30567 ft | 460 kts | 93° |
| 2026-04-12 08:24 | 21.55469 | 114.58812 | 30938 ft | 462 kts | 93° |
| 2026-04-12 08:24 | 21.55333 | 114.62269 | 31287 ft | 464 kts | 93° |
| 2026-04-12 08:25 | 21.55196 | 114.65739 | 31594 ft | 467 kts | 93° |
| 2026-04-12 08:25 | 21.54759 | 114.76639 | 32159 ft | 483 kts | 93° |
| 2026-04-12 08:26 | 21.54613 | 114.80266 | 32372 ft | 487 kts | 93° |
| 2026-04-12 08:26 | 21.54465 | 114.83909 | 32713 ft | 486 kts | 94° |
| 2026-04-12 08:26 | 21.54317 | 114.87539 | 32843 ft | 488 kts | 94° |
| 2026-04-12 08:26 | 21.54168 | 114.91182 | 32851 ft | 487 kts | 93° |
| 2026-04-12 08:27 | 21.54816 | 114.98370 | 32867 ft | 484 kts | 79° |
| 2026-04-12 08:27 | 21.56187 | 115.05459 | 32860 ft | 485 kts | 78° |
| 2026-04-12 08:28 | 21.57567 | 115.12567 | 32857 ft | 486 kts | 78° |
| 2026-04-12 08:28 | 21.58887 | 115.19646 | 32858 ft | 487 kts | 79° |
| 2026-04-12 08:29 | 21.60188 | 115.26784 | 32856 ft | 487 kts | 79° |
| 2026-04-12 08:29 | 21.61483 | 115.33937 | 32856 ft | 487 kts | 79° |
| 2026-04-12 08:30 | 21.62775 | 115.41082 | 32856 ft | 487 kts | 79° |
| 2026-04-12 08:30 | 21.64066 | 115.48230 | 32860 ft | 487 kts | 79° |
| 2026-04-12 08:31 | 21.65356 | 115.55389 | 32858 ft | 487 kts | 79° |
| 2026-04-12 08:31 | 21.66643 | 115.62542 | 32863 ft | 486 kts | 79° |
| 2026-04-12 08:32 | 21.67922 | 115.69679 | 32866 ft | 486 kts | 79° |
| 2026-04-12 08:32 | 21.69198 | 115.76813 | 32866 ft | 486 kts | 79° |
| 2026-04-12 08:33 | 21.70463 | 115.83900 | 32866 ft | 486 kts | 79° |
| 2026-04-12 08:33 | 21.71731 | 115.91029 | 32864 ft | 485 kts | 79° |
| 2026-04-12 08:34 | 21.72997 | 115.98161 | 32864 ft | 485 kts | 79° |
| 2026-04-12 08:34 | 21.74259 | 116.05293 | 32864 ft | 485 kts | 79° |
| 2026-04-12 08:35 | 21.75520 | 116.12430 | 32861 ft | 485 kts | 79° |
| 2026-04-12 08:35 | 21.76778 | 116.19574 | 32873 ft | 485 kts | 79° |
| 2026-04-12 08:36 | 21.78031 | 116.26708 | 32867 ft | 485 kts | 79° |
| 2026-04-12 08:36 | 21.79281 | 116.33847 | 32869 ft | 485 kts | 79° |
| 2026-04-12 08:37 | 21.80523 | 116.40952 | 32868 ft | 486 kts | 79° |
| 2026-04-12 08:37 | 21.81768 | 116.48100 | 32868 ft | 486 kts | 79° |
| 2026-04-12 08:38 | 21.83011 | 116.55247 | 32868 ft | 486 kts | 79° |
| 2026-04-12 08:38 | 21.84250 | 116.62400 | 32869 ft | 486 kts | 79° |
| 2026-04-12 08:39 | 21.85487 | 116.69553 | 32866 ft | 486 kts | 79° |
| 2026-04-12 08:39 | 21.86722 | 116.76715 | 32869 ft | 486 kts | 79° |
| 2026-04-12 08:40 | 21.87944 | 116.83820 | 32869 ft | 486 kts | 79° |
| 2026-04-12 08:40 | 21.89171 | 116.90976 | 32871 ft | 486 kts | 79° |
| 2026-04-12 08:41 | 21.90394 | 116.98126 | 32871 ft | 486 kts | 80° |
| 2026-04-12 08:41 | 21.91615 | 117.05284 | 32873 ft | 486 kts | 80° |
| 2026-04-12 08:42 | 21.92833 | 117.12445 | 32875 ft | 486 kts | 80° |
| 2026-04-12 08:42 | 21.94048 | 117.19605 | 32878 ft | 486 kts | 80° |
| 2026-04-12 08:43 | 21.95260 | 117.26771 | 32875 ft | 486 kts | 80° |
| 2026-04-12 08:43 | 21.96469 | 117.33936 | 32872 ft | 486 kts | 80° |
| 2026-04-12 08:44 | 21.97674 | 117.41096 | 32881 ft | 486 kts | 80° |
| 2026-04-12 08:44 | 21.98983 | 117.48188 | 32874 ft | 485 kts | 73° |
| 2026-04-12 08:45 | 22.01717 | 117.54796 | 32881 ft | 483 kts | 57° |
| 2026-04-12 08:45 | 22.05283 | 117.60936 | 32875 ft | 483 kts | 56° |
| 2026-04-12 08:46 | 22.08858 | 117.67080 | 32879 ft | 484 kts | 57° |
| 2026-04-12 08:47 | 22.14139 | 117.76362 | 32881 ft | 484 kts | 57° |
| 2026-04-12 08:47 | 22.17644 | 117.82566 | 32880 ft | 485 kts | 57° |
| 2026-04-12 08:48 | 22.21152 | 117.88778 | 32878 ft | 485 kts | 57° |
| 2026-04-12 08:48 | 22.24640 | 117.94956 | 32882 ft | 485 kts | 57° |
| 2026-04-12 08:49 | 22.28151 | 118.01177 | 32880 ft | 485 kts | 57° |
| 2026-04-12 08:49 | 22.31743 | 118.07349 | 32877 ft | 485 kts | 56° |
| 2026-04-12 08:50 | 22.34770 | 118.12502 | 32884 ft | 485 kts | 56° |
| 2026-04-12 08:50 | 22.38354 | 118.18643 | 32883 ft | 485 kts | 56° |
| 2026-04-12 08:51 | 22.41932 | 118.24835 | 32879 ft | 486 kts | 57° |
| 2026-04-12 08:51 | 22.45456 | 118.31068 | 32882 ft | 486 kts | 57° |
| 2026-04-12 08:52 | 22.48976 | 118.37311 | 32886 ft | 486 kts | 57° |
| 2026-04-12 08:52 | 22.52499 | 118.43544 | 32884 ft | 486 kts | 57° |
| 2026-04-12 08:53 | 22.56021 | 118.49780 | 32887 ft | 486 kts | 57° |
| 2026-04-12 08:53 | 22.59557 | 118.56015 | 32884 ft | 486 kts | 57° |
| 2026-04-12 08:54 | 22.63111 | 118.62242 | 32887 ft | 486 kts | 57° |
| 2026-04-12 08:54 | 22.66635 | 118.68425 | 32886 ft | 486 kts | 57° |
| 2026-04-12 08:55 | 22.70183 | 118.74664 | 32888 ft | 486 kts | 57° |
| 2026-04-12 08:55 | 22.73725 | 118.80904 | 32888 ft | 487 kts | 57° |
| 2026-04-12 08:56 | 22.77274 | 118.87166 | 32886 ft | 487 kts | 57° |
| 2026-04-12 08:56 | 22.80815 | 118.93418 | 32889 ft | 487 kts | 57° |
| 2026-04-12 08:57 | 22.84359 | 118.99685 | 32887 ft | 487 kts | 57° |
| 2026-04-12 08:57 | 22.87901 | 119.05957 | 32886 ft | 487 kts | 57° |
| 2026-04-12 08:58 | 22.91417 | 119.12188 | 32885 ft | 488 kts | 57° |
| 2026-04-12 08:58 | 22.94960 | 119.18476 | 32888 ft | 488 kts | 57° |
| 2026-04-12 08:59 | 22.98499 | 119.24763 | 32891 ft | 488 kts | 57° |
| 2026-04-12 08:59 | 23.02034 | 119.31053 | 32889 ft | 488 kts | 57° |
| 2026-04-12 09:00 | 23.05570 | 119.37351 | 32886 ft | 488 kts | 57° |
| 2026-04-12 09:00 | 23.09106 | 119.43658 | 32885 ft | 488 kts | 57° |
| 2026-04-12 09:01 | 23.12615 | 119.49923 | 32883 ft | 489 kts | 57° |
| 2026-04-12 09:01 | 23.16145 | 119.56236 | 32880 ft | 489 kts | 57° |
| 2026-04-12 09:02 | 23.19671 | 119.62544 | 32877 ft | 489 kts | 57° |
| 2026-04-12 09:02 | 23.23202 | 119.68863 | 32874 ft | 489 kts | 57° |
| 2026-04-12 09:03 | 23.26730 | 119.75189 | 32870 ft | 489 kts | 57° |
| 2026-04-12 09:03 | 23.30252 | 119.81512 | 32871 ft | 489 kts | 57° |
| 2026-04-12 09:04 | 23.33774 | 119.87841 | 32875 ft | 489 kts | 57° |
| 2026-04-12 09:04 | 23.37621 | 119.93912 | 32862 ft | 486 kts | 45° |
| 2026-04-12 09:05 | 23.42482 | 119.98983 | 32883 ft | 483 kts | 40° |
| 2026-04-12 09:05 | 23.47434 | 120.03944 | 32895 ft | 484 kts | 40° |
| 2026-04-12 09:06 | 23.52328 | 120.08925 | 32901 ft | 485 kts | 40° |
| 2026-04-12 09:06 | 23.57229 | 120.13976 | 32892 ft | 485 kts | 40° |
| 2026-04-12 09:07 | 23.62133 | 120.19048 | 32889 ft | 485 kts | 40° |
| 2026-04-12 09:07 | 23.67035 | 120.24120 | 32893 ft | 486 kts | 40° |
| 2026-04-12 09:08 | 23.71932 | 120.29189 | 32899 ft | 486 kts | 40° |
| 2026-04-12 09:08 | 23.76835 | 120.34270 | 32897 ft | 486 kts | 40° |
| 2026-04-12 09:09 | 23.81703 | 120.39320 | 32905 ft | 486 kts | 40° |
| 2026-04-12 09:09 | 23.86605 | 120.44411 | 32897 ft | 486 kts | 40° |
| 2026-04-12 09:10 | 23.91550 | 120.49436 | 32895 ft | 483 kts | 35° |
| 2026-04-12 09:10 | 23.96929 | 120.53826 | 32917 ft | 481 kts | 32° |
| 2026-04-12 09:11 | 24.02357 | 120.58112 | 32939 ft | 481 kts | 32° |
| 2026-04-12 09:11 | 24.07768 | 120.62434 | 32930 ft | 482 kts | 33° |
| 2026-04-12 09:12 | 24.13139 | 120.66769 | 32944 ft | 482 kts | 33° |
| 2026-04-12 09:12 | 24.18527 | 120.71133 | 32941 ft | 482 kts | 33° |
| 2026-04-12 09:13 | 24.23916 | 120.75501 | 32950 ft | 482 kts | 33° |
| 2026-04-12 09:13 | 24.29316 | 120.79879 | 32937 ft | 483 kts | 33° |
| 2026-04-12 09:14 | 24.34711 | 120.84259 | 32942 ft | 482 kts | 33° |
| 2026-04-12 09:14 | 24.40106 | 120.88644 | 32945 ft | 482 kts | 33° |
| 2026-04-12 09:15 | 24.45502 | 120.93034 | 32952 ft | 482 kts | 33° |
| 2026-04-12 09:15 | 24.50891 | 120.97423 | 32945 ft | 483 kts | 33° |
| 2026-04-12 09:16 | 24.56292 | 121.01824 | 32939 ft | 483 kts | 33° |
| 2026-04-12 09:16 | 24.61687 | 121.06226 | 32939 ft | 483 kts | 33° |
| 2026-04-12 09:17 | 24.67079 | 121.10632 | 32915 ft | 482 kts | 33° |
| 2026-04-12 09:17 | 24.72432 | 121.15010 | 32921 ft | 482 kts | 33° |
| 2026-04-12 09:18 | 24.77806 | 121.19411 | 32914 ft | 481 kts | 33° |
| 2026-04-12 09:18 | 24.83184 | 121.23819 | 32891 ft | 481 kts | 33° |
| 2026-04-12 09:19 | 24.88560 | 121.28231 | 32898 ft | 481 kts | 33° |
| 2026-04-12 09:19 | 24.93894 | 121.32614 | 32887 ft | 482 kts | 33° |
| 2026-04-12 09:20 | 25.01967 | 121.39256 | 32889 ft | 482 kts | 32° |
| 2026-04-12 09:21 | 25.10039 | 121.45909 | 32888 ft | 484 kts | 32° |
| 2026-04-12 09:21 | 25.15432 | 121.50360 | 32881 ft | 485 kts | 32° |
| 2026-04-12 09:22 | 25.20423 | 121.55418 | 32900 ft | 489 kts | 45° |
| 2026-04-12 09:22 | 25.24855 | 121.61096 | 32872 ft | 491 kts | 46° |
| 2026-04-12 09:23 | 25.29302 | 121.66843 | 32871 ft | 491 kts | 46° |
| 2026-04-12 09:23 | 25.33786 | 121.72551 | 32872 ft | 492 kts | 45° |
| 2026-04-12 09:24 | 25.38291 | 121.78248 | 32873 ft | 492 kts | 45° |
| 2026-04-12 09:24 | 25.42797 | 121.83952 | 32879 ft | 492 kts | 45° |
| 2026-04-12 09:25 | 25.47265 | 121.89620 | 32883 ft | 492 kts | 45° |
| 2026-04-12 09:25 | 25.51761 | 121.95333 | 32893 ft | 492 kts | 45° |
| 2026-04-12 09:26 | 25.56258 | 122.01055 | 32896 ft | 492 kts | 45° |
| 2026-04-12 09:26 | 25.60781 | 122.06760 | 32893 ft | 491 kts | 42° |
| 2026-04-12 09:27 | 25.66014 | 122.11472 | 32903 ft | 483 kts | 30° |
| 2026-04-12 09:27 | 25.71557 | 122.15671 | 32892 ft | 483 kts | 29° |
| 2026-04-12 09:28 | 25.77062 | 122.19868 | 32893 ft | 483 kts | 30° |
| 2026-04-12 09:28 | 25.82574 | 122.24143 | 32898 ft | 484 kts | 30° |
| 2026-04-12 09:29 | 25.88085 | 122.28448 | 32891 ft | 484 kts | 30° |
| 2026-04-12 09:29 | 25.93597 | 122.32758 | 32889 ft | 484 kts | 30° |
| 2026-04-12 09:30 | 25.99109 | 122.37069 | 32895 ft | 484 kts | 30° |
| 2026-04-12 09:30 | 26.04630 | 122.41392 | 32897 ft | 484 kts | 30° |
| 2026-04-12 09:31 | 26.10107 | 122.45686 | 32892 ft | 485 kts | 30° |
| 2026-04-12 09:31 | 26.15623 | 122.50014 | 32892 ft | 485 kts | 30° |
| 2026-04-12 09:32 | 26.21140 | 122.54353 | 32889 ft | 485 kts | 30° |
| 2026-04-12 09:32 | 26.26652 | 122.58697 | 32894 ft | 485 kts | 30° |
| 2026-04-12 09:33 | 26.32156 | 122.63041 | 32895 ft | 485 kts | 30° |
| 2026-04-12 09:33 | 26.37664 | 122.67392 | 32899 ft | 485 kts | 30° |
| 2026-04-12 09:34 | 26.43167 | 122.71745 | 32892 ft | 485 kts | 30° |
| 2026-04-12 09:34 | 26.48643 | 122.76083 | 32898 ft | 485 kts | 30° |
| 2026-04-12 09:35 | 26.54152 | 122.80450 | 32890 ft | 485 kts | 30° |
| 2026-04-12 09:35 | 26.59669 | 122.84819 | 32897 ft | 485 kts | 30° |
| 2026-04-12 09:36 | 26.65183 | 122.89183 | 32900 ft | 486 kts | 30° |
| 2026-04-12 09:36 | 26.70693 | 122.93553 | 32890 ft | 486 kts | 30° |
| 2026-04-12 09:37 | 26.76206 | 122.97931 | 32892 ft | 486 kts | 30° |
| 2026-04-12 09:37 | 26.81711 | 123.02310 | 32890 ft | 486 kts | 30° |
| 2026-04-12 09:38 | 26.87181 | 123.06675 | 32889 ft | 486 kts | 30° |
| 2026-04-12 09:38 | 26.91788 | 123.10359 | 32889 ft | 486 kts | 30° |
| 2026-04-12 09:39 | 26.97286 | 123.14759 | 32891 ft | 485 kts | 30° |
| 2026-04-12 09:39 | 27.03682 | 123.19883 | 32891 ft | 486 kts | 30° |
| 2026-04-12 09:40 | 27.08250 | 123.23547 | 32892 ft | 486 kts | 30° |
| 2026-04-12 09:40 | 27.13748 | 123.27962 | 32893 ft | 486 kts | 30° |
| 2026-04-12 09:41 | 27.19246 | 123.32383 | 32885 ft | 486 kts | 30° |
| 2026-04-12 09:41 | 27.24746 | 123.36810 | 32892 ft | 486 kts | 30° |
| 2026-04-12 09:42 | 27.30246 | 123.41244 | 32888 ft | 487 kts | 30° |
| 2026-04-12 09:42 | 27.35722 | 123.45664 | 32891 ft | 487 kts | 30° |
| 2026-04-12 09:43 | 27.46727 | 123.54562 | 32890 ft | 487 kts | 30° |
| 2026-04-12 09:44 | 27.52235 | 123.59025 | 32894 ft | 487 kts | 30° |
| 2026-04-12 09:44 | 27.57746 | 123.63496 | 32890 ft | 487 kts | 30° |
| 2026-04-12 09:45 | 27.63245 | 123.67985 | 32890 ft | 488 kts | 32° |
| 2026-04-12 09:45 | 27.68583 | 123.72683 | 32895 ft | 490 kts | 33° |
| 2026-04-12 09:46 | 27.73945 | 123.77513 | 32892 ft | 490 kts | 33° |
| 2026-04-12 09:46 | 27.79251 | 123.82251 | 32892 ft | 490 kts | 33° |
| 2026-04-12 09:47 | 27.84609 | 123.87009 | 32892 ft | 489 kts | 33° |
| 2026-04-12 09:47 | 27.89970 | 123.91773 | 32892 ft | 490 kts | 33° |
| 2026-04-12 09:48 | 27.95324 | 123.96541 | 32890 ft | 490 kts | 33° |
| 2026-04-12 09:48 | 28.00673 | 124.01310 | 32894 ft | 490 kts | 33° |
| 2026-04-12 09:49 | 28.06025 | 124.06087 | 32891 ft | 490 kts | 33° |
| 2026-04-12 09:49 | 28.11380 | 124.10875 | 32891 ft | 490 kts | 33° |
| 2026-04-12 09:50 | 28.16732 | 124.15667 | 32887 ft | 490 kts | 33° |
| 2026-04-12 09:50 | 28.22088 | 124.20470 | 32891 ft | 491 kts | 33° |
| 2026-04-12 09:51 | 28.27410 | 124.25248 | 32887 ft | 491 kts | 33° |
| 2026-04-12 09:51 | 28.32765 | 124.30062 | 32891 ft | 491 kts | 33° |
| 2026-04-12 09:52 | 28.38124 | 124.34886 | 32892 ft | 492 kts | 32° |
| 2026-04-12 09:52 | 28.43497 | 124.39729 | 32892 ft | 492 kts | 32° |
| 2026-04-12 09:53 | 28.48859 | 124.44569 | 32889 ft | 492 kts | 32° |
| 2026-04-12 09:53 | 28.54222 | 124.49416 | 32894 ft | 492 kts | 32° |
| 2026-04-12 09:54 | 28.59591 | 124.54275 | 32893 ft | 493 kts | 32° |
| 2026-04-12 09:54 | 28.64926 | 124.59111 | 32889 ft | 493 kts | 32° |
| 2026-04-12 09:55 | 28.70296 | 124.63985 | 32893 ft | 493 kts | 32° |
| 2026-04-12 09:55 | 28.75699 | 124.68813 | 32887 ft | 490 kts | 28° |
| 2026-04-12 09:56 | 28.81658 | 124.72249 | 32897 ft | 474 kts | 12° |
| 2026-04-12 09:56 | 28.87893 | 124.74668 | 32891 ft | 473 kts | 11° |
| 2026-04-12 09:57 | 28.94140 | 124.77065 | 32893 ft | 474 kts | 11° |
| 2026-04-12 09:57 | 29.00386 | 124.79521 | 32894 ft | 475 kts | 11° |
| 2026-04-12 09:58 | 29.06633 | 124.82012 | 32888 ft | 476 kts | 11° |
| 2026-04-12 09:58 | 29.12853 | 124.84502 | 32892 ft | 476 kts | 11° |
| 2026-04-12 09:59 | 29.19124 | 124.87013 | 32892 ft | 477 kts | 11° |
| 2026-04-12 09:59 | 29.25391 | 124.89525 | 32894 ft | 477 kts | 11° |
| 2026-04-12 10:00 | 29.31621 | 124.92024 | 32891 ft | 477 kts | 11° |
| 2026-04-12 10:00 | 29.37894 | 124.94544 | 32890 ft | 477 kts | 11° |
| 2026-04-12 10:01 | 29.44167 | 124.97067 | 32891 ft | 478 kts | 11° |
| 2026-04-12 10:01 | 29.50445 | 124.99595 | 32891 ft | 478 kts | 11° |
| 2026-04-12 10:02 | 29.56723 | 125.02127 | 32889 ft | 478 kts | 11° |
| 2026-04-12 10:02 | 29.63004 | 125.04664 | 32888 ft | 478 kts | 11° |
| 2026-04-12 10:03 | 29.69237 | 125.07184 | 32892 ft | 478 kts | 11° |
| 2026-04-12 10:03 | 29.75513 | 125.09725 | 32894 ft | 478 kts | 11° |
| 2026-04-12 10:04 | 29.81797 | 125.12273 | 32895 ft | 478 kts | 11° |
| 2026-04-12 10:04 | 29.88072 | 125.14821 | 32895 ft | 478 kts | 11° |
| 2026-04-12 10:05 | 29.94353 | 125.17375 | 32895 ft | 479 kts | 11° |
| 2026-04-12 10:05 | 30.00641 | 125.19934 | 32900 ft | 479 kts | 11° |
| 2026-04-12 10:06 | 30.06925 | 125.22499 | 32908 ft | 479 kts | 11° |
| 2026-04-12 10:06 | 30.13220 | 125.25076 | 32906 ft | 479 kts | 11° |
| 2026-04-12 10:07 | 30.19514 | 125.27656 | 32913 ft | 480 kts | 11° |
| 2026-04-12 10:07 | 30.25766 | 125.30222 | 32910 ft | 480 kts | 11° |
| 2026-04-12 10:08 | 30.32060 | 125.32809 | 32913 ft | 480 kts | 11° |
| 2026-04-12 10:08 | 30.38356 | 125.35400 | 32921 ft | 480 kts | 11° |
| 2026-04-12 10:09 | 30.44649 | 125.37993 | 32915 ft | 480 kts | 10° |
| 2026-04-12 10:09 | 30.50944 | 125.40591 | 32922 ft | 480 kts | 10° |
| 2026-04-12 10:10 | 30.57234 | 125.43190 | 32928 ft | 480 kts | 10° |
| 2026-04-12 10:10 | 30.63528 | 125.45795 | 32929 ft | 480 kts | 10° |
| 2026-04-12 10:11 | 30.69822 | 125.48403 | 32932 ft | 480 kts | 10° |
| 2026-04-12 10:11 | 30.76066 | 125.50994 | 32936 ft | 479 kts | 10° |
| 2026-04-12 10:12 | 30.82348 | 125.53604 | 32936 ft | 479 kts | 10° |
| 2026-04-12 10:12 | 30.88622 | 125.56215 | 32935 ft | 479 kts | 10° |
| 2026-04-12 10:13 | 30.94898 | 125.58830 | 32939 ft | 478 kts | 10° |
| 2026-04-12 10:13 | 31.01165 | 125.61445 | 32941 ft | 478 kts | 9° |
| 2026-04-12 10:14 | 31.07434 | 125.64064 | 32953 ft | 477 kts | 9° |
| 2026-04-12 10:14 | 31.13692 | 125.66683 | 32955 ft | 477 kts | 9° |
| 2026-04-12 10:15 | 31.19901 | 125.69284 | 32961 ft | 477 kts | 9° |
| 2026-04-12 10:15 | 31.26141 | 125.71903 | 32963 ft | 476 kts | 9° |
| 2026-04-12 10:16 | 31.32378 | 125.74524 | 32965 ft | 476 kts | 9° |
| 2026-04-12 10:16 | 31.38618 | 125.77149 | 32965 ft | 475 kts | 9° |
| 2026-04-12 10:17 | 31.44803 | 125.79756 | 32971 ft | 475 kts | 9° |
| 2026-04-12 10:17 | 31.51036 | 125.82387 | 32970 ft | 475 kts | 9° |
| 2026-04-12 10:18 | 31.57254 | 125.85014 | 32974 ft | 475 kts | 9° |
| 2026-04-12 10:18 | 31.63469 | 125.87634 | 32978 ft | 475 kts | 9° |
| 2026-04-12 10:19 | 31.69693 | 125.90247 | 32983 ft | 475 kts | 9° |
| 2026-04-12 10:19 | 31.75921 | 125.92868 | 32983 ft | 475 kts | 9° |
| 2026-04-12 10:20 | 31.82147 | 125.95494 | 32988 ft | 475 kts | 9° |
| 2026-04-12 10:20 | 31.88372 | 125.98123 | 32995 ft | 475 kts | 9° |
| 2026-04-12 10:21 | 31.94555 | 126.00739 | 32992 ft | 475 kts | 9° |
| 2026-04-12 10:21 | 32.00782 | 126.03378 | 32988 ft | 475 kts | 9° |
| 2026-04-12 10:22 | 32.07003 | 126.06017 | 32998 ft | 475 kts | 9° |
| 2026-04-12 10:22 | 32.13238 | 126.08658 | 32992 ft | 475 kts | 9° |
| 2026-04-12 10:23 | 32.19455 | 126.11291 | 32999 ft | 475 kts | 9° |
| 2026-04-12 10:23 | 32.25627 | 126.13910 | 32997 ft | 475 kts | 9° |
| 2026-04-12 10:24 | 32.31853 | 126.16558 | 33002 ft | 475 kts | 9° |
| 2026-04-12 10:24 | 32.38082 | 126.19211 | 33002 ft | 476 kts | 9° |
| 2026-04-12 10:25 | 32.44319 | 126.21872 | 33007 ft | 476 kts | 9° |
| 2026-04-12 10:25 | 32.50568 | 126.24542 | 33008 ft | 477 kts | 9° |
| 2026-04-12 10:26 | 32.56784 | 126.27201 | 33016 ft | 478 kts | 9° |
| 2026-04-12 10:26 | 32.62027 | 126.29449 | 33016 ft | 478 kts | 9° |
| 2026-04-12 10:27 | 32.68254 | 126.32123 | 33014 ft | 479 kts | 9° |
| 2026-04-12 10:27 | 32.74529 | 126.34823 | 33015 ft | 479 kts | 9° |
| 2026-04-12 10:28 | 32.80815 | 126.37532 | 33022 ft | 480 kts | 9° |
| 2026-04-12 10:28 | 32.87103 | 126.40247 | 33025 ft | 480 kts | 9° |
| 2026-04-12 10:29 | 32.93346 | 126.42945 | 33027 ft | 481 kts | 9° |
| 2026-04-12 10:29 | 32.99642 | 126.45670 | 33024 ft | 481 kts | 9° |
| 2026-04-12 10:30 | 33.05953 | 126.48390 | 33028 ft | 481 kts | 9° |
| 2026-04-12 10:30 | 33.12256 | 126.51095 | 33030 ft | 481 kts | 9° |
| 2026-04-12 10:31 | 33.18562 | 126.53808 | 33034 ft | 482 kts | 9° |
| 2026-04-12 10:31 | 33.24873 | 126.56532 | 33031 ft | 482 kts | 9° |
| 2026-04-12 10:32 | 33.31148 | 126.59244 | 33021 ft | 483 kts | 9° |
| 2026-04-12 10:32 | 33.37461 | 126.61976 | 33025 ft | 482 kts | 9° |
| 2026-04-12 10:33 | 33.43784 | 126.64724 | 33033 ft | 483 kts | 9° |
| 2026-04-12 10:33 | 33.50111 | 126.67486 | 33032 ft | 484 kts | 9° |
| 2026-04-12 10:34 | 33.56481 | 126.69935 | 33022 ft | 471 kts | 359° |
| 2026-04-12 10:34 | 33.59682 | 126.70423 | 33037 ft | 460 kts | 353° |
| 2026-04-12 10:34 | 33.62869 | 126.70725 | 33034 ft | 459 kts | 352° |
| 2026-04-12 10:35 | 33.69261 | 126.71289 | 33035 ft | 461 kts | 352° |
| 2026-04-12 10:35 | 33.75630 | 126.71925 | 33037 ft | 463 kts | 353° |
| 2026-04-12 10:36 | 33.82052 | 126.72609 | 33038 ft | 464 kts | 353° |
| 2026-04-12 10:36 | 33.88484 | 126.73292 | 33039 ft | 464 kts | 353° |
| 2026-04-12 10:37 | 33.94919 | 126.73965 | 33042 ft | 464 kts | 353° |
| 2026-04-12 10:37 | 34.01354 | 126.74636 | 33037 ft | 464 kts | 353° |
| 2026-04-12 10:38 | 34.07790 | 126.75309 | 33039 ft | 464 kts | 353° |
| 2026-04-12 10:38 | 34.14218 | 126.75983 | 33040 ft | 464 kts | 353° |
| 2026-04-12 10:39 | 34.20651 | 126.76659 | 33064 ft | 464 kts | 353° |
| 2026-04-12 10:39 | 34.27053 | 126.77332 | 33047 ft | 464 kts | 353° |
| 2026-04-12 10:40 | 34.33488 | 126.78015 | 33040 ft | 464 kts | 353° |
| 2026-04-12 10:40 | 34.39921 | 126.78700 | 33042 ft | 464 kts | 353° |
| 2026-04-12 10:41 | 34.46351 | 126.79386 | 33043 ft | 464 kts | 353° |
| 2026-04-12 10:41 | 34.52786 | 126.80072 | 33052 ft | 464 kts | 353° |
| 2026-04-12 10:42 | 34.59187 | 126.80755 | 33056 ft | 464 kts | 353° |
| 2026-04-12 10:42 | 34.65619 | 126.81444 | 33050 ft | 464 kts | 353° |
| 2026-04-12 10:43 | 34.75272 | 126.82479 | 33042 ft | 464 kts | 352° |
| 2026-04-12 10:43 | 34.81705 | 126.83169 | 33034 ft | 464 kts | 352° |
| 2026-04-12 10:44 | 34.88096 | 126.83858 | 33038 ft | 463 kts | 352° |
| 2026-04-12 10:44 | 34.94555 | 126.84556 | 33056 ft | 462 kts | 352° |
| 2026-04-12 10:45 | 35.00928 | 126.85243 | 33047 ft | 462 kts | 352° |
| 2026-04-12 10:45 | 35.07320 | 126.85933 | 33051 ft | 462 kts | 352° |
| 2026-04-12 10:46 | 35.13731 | 126.86625 | 33049 ft | 463 kts | 352° |
| 2026-04-12 10:46 | 35.20164 | 126.87322 | 33048 ft | 464 kts | 353° |
| 2026-04-12 10:47 | 35.26608 | 126.88023 | 33043 ft | 465 kts | 353° |
| 2026-04-12 10:47 | 35.33069 | 126.88726 | 33037 ft | 466 kts | 353° |
| 2026-04-12 10:48 | 35.39515 | 126.89430 | 33060 ft | 464 kts | 353° |
| 2026-04-12 10:48 | 35.45962 | 126.90134 | 33053 ft | 465 kts | 353° |
| 2026-04-12 10:49 | 35.52347 | 126.90835 | 33068 ft | 463 kts | 353° |
| 2026-04-12 10:49 | 35.58778 | 126.91536 | 33062 ft | 463 kts | 353° |
| 2026-04-12 10:50 | 35.65193 | 126.92237 | 33056 ft | 463 kts | 353° |
| 2026-04-12 10:50 | 35.71602 | 126.92941 | 33054 ft | 462 kts | 353° |
| 2026-04-12 10:51 | 35.78004 | 126.93645 | 33047 ft | 461 kts | 353° |
| 2026-04-12 10:51 | 35.84393 | 126.94348 | 33046 ft | 461 kts | 353° |
| 2026-04-12 10:52 | 35.90789 | 126.95053 | 33055 ft | 461 kts | 353° |
| 2026-04-12 10:52 | 35.97178 | 126.95758 | 33052 ft | 461 kts | 353° |
| 2026-04-12 10:53 | 36.03568 | 126.96465 | 33049 ft | 461 kts | 353° |
| 2026-04-12 10:53 | 36.09959 | 126.97174 | 33046 ft | 461 kts | 353° |
| 2026-04-12 10:54 | 36.16312 | 126.97880 | 33041 ft | 460 kts | 353° |
| 2026-04-12 10:54 | 36.22690 | 126.98591 | 33034 ft | 460 kts | 353° |
| 2026-04-12 10:55 | 36.29057 | 126.99300 | 33042 ft | 459 kts | 353° |
| 2026-04-12 10:55 | 36.35428 | 127.00008 | 32499 ft | 462 kts | 354° |
| 2026-04-12 10:56 | 36.38586 | 127.00345 | 31837 ft | 458 kts | 352° |
| 2026-04-12 10:56 | 36.41732 | 127.00403 | 31307 ft | 445 kts | 348° |
| 2026-04-12 10:56 | 36.44802 | 127.00276 | 30776 ft | 438 kts | 347° |
| 2026-04-12 10:56 | 36.47830 | 127.00099 | 30263 ft | 433 kts | 347° |
| 2026-04-12 10:57 | 36.50839 | 126.99937 | 29676 ft | 430 kts | 348° |
| 2026-04-12 10:57 | 36.53816 | 126.99809 | 29105 ft | 426 kts | 348° |
| 2026-04-12 10:57 | 36.56764 | 126.99702 | 28579 ft | 421 kts | 349° |
| 2026-04-12 10:57 | 36.59675 | 126.99603 | 28047 ft | 416 kts | 349° |
| 2026-04-12 10:58 | 36.62549 | 126.99503 | 27514 ft | 411 kts | 349° |
| 2026-04-12 10:58 | 36.65385 | 126.99403 | 27021 ft | 405 kts | 349° |
| 2026-04-12 10:58 | 36.68155 | 126.99304 | 26511 ft | 400 kts | 350° |
| 2026-04-12 10:58 | 36.70927 | 126.99202 | 25948 ft | 397 kts | 353° |
| 2026-04-12 10:59 | 36.73668 | 126.98987 | 25438 ft | 390 kts | 344° |
| 2026-04-12 10:59 | 36.76216 | 126.97963 | 24799 ft | 383 kts | 332° |
| 2026-04-12 10:59 | 36.78661 | 126.96622 | 24246 ft | 383 kts | 330° |
| 2026-04-12 10:59 | 36.81087 | 126.95269 | 23748 ft | 381 kts | 331° |
| 2026-04-12 11:00 | 36.83514 | 126.93945 | 23202 ft | 380 kts | 332° |
| 2026-04-12 11:00 | 36.85942 | 126.92651 | 22677 ft | 378 kts | 333° |
| 2026-04-12 11:00 | 36.88355 | 126.91378 | 22179 ft | 374 kts | 333° |
| 2026-04-12 11:00 | 36.90813 | 126.90332 | 21685 ft | 377 kts | 347° |
| 2026-04-12 11:01 | 36.93433 | 126.90339 | 21249 ft | 380 kts | 8° |
| 2026-04-12 11:01 | 36.95934 | 126.91424 | 20713 ft | 384 kts | 27° |
| 2026-04-12 11:01 | 36.98060 | 126.93455 | 20259 ft | 384 kts | 41° |
| 2026-04-12 11:01 | 36.99983 | 126.95752 | 19792 ft | 382 kts | 43° |
| 2026-04-12 11:02 | 37.01862 | 126.98026 | 19337 ft | 379 kts | 42° |
| 2026-04-12 11:02 | 37.03762 | 127.00281 | 18911 ft | 375 kts | 42° |
| 2026-04-12 11:02 | 37.05666 | 127.02429 | 18766 ft | 361 kts | 34° |
| 2026-04-12 11:02 | 37.07872 | 127.03769 | 18605 ft | 347 kts | 12° |
| 2026-04-12 11:03 | 37.10217 | 127.04057 | 18355 ft | 336 kts | 354° |
| 2026-04-12 11:03 | 37.12487 | 127.03478 | 17934 ft | 331 kts | 338° |
| 2026-04-12 11:03 | 37.14503 | 127.02148 | 17562 ft | 325 kts | 324° |
| 2026-04-12 11:03 | 37.16344 | 127.00531 | 17188 ft | 322 kts | 322° |
| 2026-04-12 11:04 | 37.18136 | 126.98912 | 17054 ft | 312 kts | 322° |
| 2026-04-12 11:04 | 37.19870 | 126.97349 | 16904 ft | 303 kts | 323° |
| 2026-04-12 11:04 | 37.21564 | 126.95848 | 16774 ft | 294 kts | 323° |
| 2026-04-12 11:04 | 37.23214 | 126.94398 | 16650 ft | 285 kts | 323° |
| 2026-04-12 11:05 | 37.24792 | 126.93013 | 16536 ft | 276 kts | 323° |
| 2026-04-12 11:05 | 37.26344 | 126.91652 | 16429 ft | 267 kts | 323° |
| 2026-04-12 11:05 | 37.27803 | 126.90253 | 16217 ft | 262 kts | 315° |
| 2026-04-12 11:05 | 37.29084 | 126.88656 | 15996 ft | 258 kts | 312° |
| 2026-04-12 11:06 | 37.30335 | 126.87037 | 15732 ft | 257 kts | 313° |
| 2026-04-12 11:06 | 37.31582 | 126.85446 | 15466 ft | 255 kts | 313° |
| 2026-04-12 11:06 | 37.32803 | 126.83907 | 15224 ft | 254 kts | 313° |
| 2026-04-12 11:06 | 37.34051 | 126.82342 | 14956 ft | 253 kts | 313° |
| 2026-04-12 11:07 | 37.35267 | 126.80760 | 14691 ft | 251 kts | 312° |
| 2026-04-12 11:07 | 37.36468 | 126.79173 | 14441 ft | 250 kts | 312° |
| 2026-04-12 11:07 | 37.37468 | 126.77445 | 14164 ft | 247 kts | 290° |
| 2026-04-12 11:07 | 37.37704 | 126.75341 | 13928 ft | 244 kts | 264° |
| 2026-04-12 11:08 | 37.37200 | 126.73308 | 13624 ft | 245 kts | 242° |
| 2026-04-12 11:08 | 37.36200 | 126.71590 | 13331 ft | 245 kts | 220° |
| 2026-04-12 11:08 | 37.34675 | 126.70673 | 13078 ft | 246 kts | 191° |
| 2026-04-12 11:08 | 37.32980 | 126.70771 | 12834 ft | 246 kts | 164° |
| 2026-04-12 11:09 | 37.31455 | 126.71724 | 12599 ft | 245 kts | 148° |
| 2026-04-12 11:09 | 37.30057 | 126.72941 | 12335 ft | 244 kts | 146° |
| 2026-04-12 11:09 | 37.28703 | 126.74178 | 12105 ft | 242 kts | 145° |
| 2026-04-12 11:09 | 37.27342 | 126.75416 | 11855 ft | 241 kts | 146° |
| 2026-04-12 11:10 | 37.25984 | 126.76632 | 11613 ft | 239 kts | 146° |
| 2026-04-12 11:10 | 37.24623 | 126.77839 | 11375 ft | 239 kts | 146° |
| 2026-04-12 11:10 | 37.23267 | 126.79040 | 11129 ft | 238 kts | 146° |
| 2026-04-12 11:10 | 37.21914 | 126.80232 | 10888 ft | 237 kts | 146° |
| 2026-04-12 11:11 | 37.20571 | 126.81413 | 10653 ft | 236 kts | 146° |
| 2026-04-12 11:11 | 37.19231 | 126.82591 | 10420 ft | 235 kts | 146° |
| 2026-04-12 11:11 | 37.17894 | 126.83765 | 10184 ft | 234 kts | 146° |
| 2026-04-12 11:11 | 37.16561 | 126.84936 | 9958 ft | 233 kts | 146° |
| 2026-04-12 11:12 | 37.15235 | 126.86096 | 9703 ft | 232 kts | 147° |
| 2026-04-12 11:12 | 37.13746 | 126.86780 | 9426 ft | 228 kts | 180° |
| 2026-04-12 11:12 | 37.12235 | 126.86323 | 9242 ft | 226 kts | 212° |
| 2026-04-12 11:12 | 37.11086 | 126.85021 | 9020 ft | 224 kts | 232° |
| 2026-04-12 11:13 | 37.10166 | 126.83446 | 8799 ft | 223 kts | 236° |
| 2026-04-12 11:13 | 37.09351 | 126.81800 | 8545 ft | 222 kts | 251° |
| 2026-04-12 11:13 | 37.09212 | 126.79915 | 8323 ft | 220 kts | 282° |
| 2026-04-12 11:13 | 37.09874 | 126.78200 | 8104 ft | 220 kts | 312° |
| 2026-04-12 11:14 | 37.11031 | 126.76979 | 7920 ft | 222 kts | 324° |
| 2026-04-12 11:14 | 37.12298 | 126.75877 | 7672 ft | 222 kts | 325° |
| 2026-04-12 11:14 | 37.13583 | 126.74771 | 7434 ft | 221 kts | 324° |
| 2026-04-12 11:14 | 37.14831 | 126.73688 | 7212 ft | 220 kts | 324° |
| 2026-04-12 11:15 | 37.16065 | 126.72557 | 6962 ft | 220 kts | 314° |
| 2026-04-12 11:15 | 37.16921 | 126.70959 | 6725 ft | 224 kts | 299° |
| 2026-04-12 11:15 | 37.17443 | 126.69820 | 6536 ft | 229 kts | 300° |
| 2026-04-12 11:15 | 37.18259 | 126.68078 | 6242 ft | 233 kts | 298° |
| 2026-04-12 11:16 | 37.18687 | 126.66145 | 5901 ft | 234 kts | 270° |
| 2026-04-12 11:16 | 37.18979 | 126.64186 | 5712 ft | 227 kts | 303° |
| 2026-04-12 11:16 | 37.20160 | 126.62963 | 5576 ft | 226 kts | 334° |
| 2026-04-12 11:16 | 37.21598 | 126.62116 | 5284 ft | 229 kts | 332° |
| 2026-04-12 11:17 | 37.22993 | 126.61155 | 5006 ft | 229 kts | 336° |
| 2026-04-12 11:17 | 37.24557 | 126.60626 | 4633 ft | 233 kts | 342° |
| 2026-04-12 11:17 | 37.26057 | 126.59860 | 4283 ft | 231 kts | 333° |
| 2026-04-12 11:17 | 37.27448 | 126.58878 | 3997 ft | 229 kts | 328° |
| 2026-04-12 11:18 | 37.28807 | 126.57851 | 3719 ft | 226 kts | 330° |
| 2026-04-12 11:18 | 37.30124 | 126.56871 | 3420 ft | 214 kts | 327° |
| 2026-04-12 11:18 | 37.31307 | 126.55870 | 3146 ft | 201 kts | 325° |
| 2026-04-12 11:18 | 37.32423 | 126.54876 | 2892 ft | 192 kts | 324° |
| 2026-04-12 11:19 | 37.33487 | 126.53921 | 2632 ft | 183 kts | 324° |
| 2026-04-12 11:19 | 37.34501 | 126.53010 | 2393 ft | 174 kts | 324° |
| 2026-04-12 11:19 | 37.35458 | 126.52153 | 2164 ft | 162 kts | 324° |
| 2026-04-12 11:19 | 37.36337 | 126.51365 | 1953 ft | 150 kts | 324° |
| 2026-04-12 11:20 | 37.37170 | 126.50617 | 1763 ft | 146 kts | 324° |
| 2026-04-12 11:20 | 37.37982 | 126.49889 | 1582 ft | 144 kts | 323° |
| 2026-04-12 11:20 | 37.38778 | 126.49176 | 1388 ft | 137 kts | 323° |
| 2026-04-12 11:20 | 37.39533 | 126.48500 | 1220 ft | 133 kts | 323° |
| 2026-04-12 11:21 | 37.40288 | 126.47823 | 1040 ft | 134 kts | 323° |
| 2026-04-12 11:21 | 37.41044 | 126.47144 | 884 ft | 134 kts | 323° |
| 2026-04-12 11:21 | 37.41802 | 126.46470 | 687 ft | 133 kts | 323° |
| 2026-04-12 11:21 | 37.42561 | 126.45800 | 505 ft | 134 kts | 323° |
| 2026-04-12 11:22 | 37.43313 | 126.45129 | 318 ft | 133 kts | 322° |
| 2026-04-12 11:22 | 37.44051 | 126.44440 | 173 ft | 131 kts | 322° |
| 2026-04-12 11:22 | 37.44782 | 126.43780 | 49 ft | 121 kts | 323° |
| 2026-04-12 11:22 | 37.45386 | 126.43246 | 31 ft | 86 kts | 324° |
| 2026-04-12 11:23 | 37.45749 | 126.42921 | 31 ft | 42 kts | 324° |
| 2026-04-12 11:23 | 37.45939 | 126.42771 | 31 ft | 30 kts | 336° |
| 2026-04-12 11:23 | 37.46133 | 126.42718 | 32 ft | 25 kts | 355° |
| 2026-04-12 11:23 | 37.46263 | 126.42828 | 32 ft | 23 kts | 54° |
| 2026-04-12 11:24 | 37.46351 | 126.42990 | 30 ft | 22 kts | 73° |
| 2026-04-12 11:24 | 37.46258 | 126.43103 | 32 ft | 15 kts | 155° |
| 2026-04-12 11:24 | 37.46165 | 126.43159 | 31 ft | 15 kts | 153° |
| 2026-04-12 11:24 | 37.46082 | 126.43231 | 31 ft | 14 kts | 143° |
| 2026-04-12 11:25 | 37.46013 | 126.43311 | 32 ft | 14 kts | 110° |
| 2026-04-12 11:25 | 37.46045 | 126.43414 | 32 ft | 13 kts | 53° |
| 2026-04-12 11:25 | 37.46097 | 126.43504 | 32 ft | 13 kts | 53° |
| 2026-04-12 11:25 | 37.46148 | 126.43594 | 32 ft | 12 kts | 55° |
| 2026-04-12 11:26 | 37.46205 | 126.43669 | 32 ft | 12 kts | 13° |
| 2026-04-12 11:26 | 37.46276 | 126.43624 | 32 ft | 12 kts | 324° |
| 2026-04-12 11:26 | 37.46342 | 126.43565 | 32 ft | 11 kts | 324° |
| 2026-04-12 11:26 | 37.46406 | 126.43508 | 32 ft | 12 kts | 324° |
| 2026-04-12 11:27 | 37.46486 | 126.43480 | 32 ft | 13 kts | 31° |
| 2026-04-12 11:27 | 37.46541 | 126.43570 | 32 ft | 13 kts | 54° |
| 2026-04-12 11:27 | 37.46588 | 126.43654 | 32 ft | 11 kts | 54° |
| 2026-04-12 11:27 | 37.46636 | 126.43688 | 32 ft | 7 kts | 344° |
| 2026-04-12 11:28 | 37.46668 | 126.43643 | 30 ft | 7 kts | 315° |
| 2026-04-12 11:28 | 37.46684 | 126.43629 | 31 ft | 2 kts | 324° |
| 2026-04-12 11:28 | 37.46687 | 126.43626 | 32 ft | 0 kts | 325° |